createdAt,value
2022-07-31T00:04:24.097Z,8.90
2022-07-31T00:09:52.449Z,8.88
2022-07-31T00:14:48.594Z,8.80
2022-07-31T00:19:50.406Z,8.13
2022-07-31T00:24:52.201Z,9.20
2022-07-31T00:29:54.016Z,8.30
2022-07-31T00:34:55.843Z,9.00
2022-07-31T00:39:58.753Z,8.48
2022-07-31T00:45:01.124Z,8.55
2022-07-31T00:50:04.922Z,9.63
2022-07-31T00:55:07.695Z,8.93
2022-07-31T01:00:10.465Z,8.30
2022-07-31T01:05:12.320Z,8.50
2022-07-31T01:10:36.558Z,8.30
2022-07-31T01:15:39.922Z,9.05
2022-07-31T01:20:45.622Z,7.70
2022-07-31T01:25:50.481Z,7.90
2022-07-31T01:31:28.346Z,7.28
2022-07-31T01:36:36.923Z,7.13
2022-07-31T01:41:46.341Z,7.85
2022-07-31T01:46:49.934Z,7.22
2022-07-31T01:51:53.258Z,7.20
2022-07-31T01:56:59.642Z,6.55
2022-07-31T02:02:04.850Z,7.03
2022-07-31T02:07:08.443Z,7.38
2022-07-31T02:12:12.668Z,8.30
2022-07-31T02:17:22.261Z,6.95
2022-07-31T02:23:01.598Z,7.00
2022-07-31T02:28:08.137Z,6.53
2022-07-31T02:33:14.008Z,6.72
2022-07-31T02:38:23.373Z,7.28
2022-07-31T02:43:28.722Z,7.15
2022-07-31T02:48:32.798Z,7.63
2022-07-31T02:53:39.427Z,7.22
2022-07-31T02:58:44.326Z,7.22
2022-07-31T03:03:59.322Z,7.47
2022-07-31T03:09:03.411Z,7.72
2022-07-31T03:14:08.611Z,6.80
2022-07-31T03:19:11.410Z,7.25
2022-07-31T03:24:13.614Z,6.40
2022-07-31T03:29:41.198Z,6.72
2022-07-31T03:34:37.871Z,6.90
2022-07-31T03:39:40.207Z,7.15
2022-07-31T03:44:46.560Z,7.43
2022-07-31T03:49:49.307Z,6.07
2022-07-31T03:54:51.606Z,6.68
2022-07-31T03:59:57.775Z,6.65
2022-07-31T04:05:00.285Z,6.78
2022-07-31T04:10:02.962Z,6.93
2022-07-31T04:15:06.311Z,6.55
2022-07-31T04:20:09.491Z,6.63
2022-07-31T04:25:11.350Z,6.55
2022-07-31T04:30:31.969Z,5.70
2022-07-31T04:35:35.323Z,6.13
2022-07-31T04:40:37.745Z,5.82
2022-07-31T04:45:39.607Z,5.93
2022-07-31T04:50:42.522Z,5.30
2022-07-31T04:56:04.937Z,5.55
2022-07-31T05:01:07.052Z,5.38
2022-07-31T05:06:12.821Z,4.93
2022-07-31T05:11:23.999Z,6.22
2022-07-31T05:16:27.509Z,5.30
2022-07-31T05:21:33.112Z,5.20
2022-07-31T05:27:00.400Z,4.43
2022-07-31T05:32:02.748Z,4.78
2022-07-31T05:37:07.462Z,5.15
2022-07-31T05:42:12.200Z,4.43
2022-07-31T05:47:40.148Z,3.80
2022-07-31T05:52:42.838Z,4.38
2022-07-31T05:58:20.468Z,3.85
2022-07-31T06:03:23.861Z,4.15
2022-07-31T06:08:34.895Z,4.65
2022-07-31T06:13:36.982Z,3.65
2022-07-31T06:19:05.242Z,3.55
2022-07-31T06:24:07.741Z,4.13
2022-07-31T06:29:19.285Z,3.35
2022-07-31T06:34:42.136Z,3.35
2022-07-31T06:39:56.064Z,3.45
2022-07-31T06:45:12.052Z,3.00
2022-07-31T06:50:45.928Z,3.53
2022-07-31T06:56:11.234Z,2.67
2022-07-31T07:01:16.908Z,2.80
2022-07-31T07:06:21.046Z,2.28
2022-07-31T07:11:24.248Z,2.63
2022-07-31T07:16:26.800Z,2.50
2022-07-31T07:21:29.121Z,2.88
2022-07-31T07:26:31.450Z,2.80
2022-07-31T07:31:34.960Z,2.83
2022-07-31T07:36:37.034Z,2.50
2022-07-31T07:41:44.716Z,2.45
2022-07-31T07:46:47.184Z,2.42
2022-07-31T07:51:58.801Z,3.10
2022-07-31T07:57:09.734Z,2.90
2022-07-31T08:02:35.279Z,2.53
2022-07-31T08:07:42.043Z,2.67
2022-07-31T08:13:07.995Z,2.00
2022-07-31T08:18:36.293Z,2.70
2022-07-31T08:23:38.451Z,2.55
2022-07-31T08:28:50.394Z,2.80
2022-07-31T08:33:55.165Z,2.45
2022-07-31T08:38:57.543Z,2.60
2022-07-31T08:44:17.824Z,2.70
2022-07-31T08:49:31.567Z,3.00
2022-07-31T08:54:35.763Z,3.13
2022-07-31T08:59:41.928Z,2.47
2022-07-31T09:04:44.052Z,2.60
2022-07-31T09:09:51.866Z,2.72
2022-07-31T09:14:55.382Z,2.63
2022-07-31T09:19:57.399Z,2.70
2022-07-31T09:25:12.929Z,3.25
2022-07-31T09:30:16.220Z,2.80
2022-07-31T09:35:47.225Z,3.17
2022-07-31T09:40:55.483Z,2.60
2022-07-31T09:46:06.604Z,2.65
2022-07-31T09:51:08.814Z,2.42
2022-07-31T09:56:12.738Z,2.80
2022-07-31T10:01:15.125Z,2.78
2022-07-31T10:06:20.455Z,2.70
2022-07-31T10:11:24.911Z,2.80
2022-07-31T10:22:10.049Z,2.45
2022-07-31T10:27:14.525Z,3.00
2022-07-31T10:32:17.563Z,4.70
2022-07-31T10:38:01.502Z,7.72
2022-07-31T10:43:29.476Z,4.28
2022-07-31T10:48:53.786Z,4.55
2022-07-31T10:54:16.052Z,4.43
2022-07-31T10:59:45.615Z,3.83
2022-07-31T11:04:50.623Z,3.35
2022-07-31T11:10:21.952Z,3.42
2022-07-31T11:15:34.041Z,3.13
2022-07-31T11:21:13.683Z,3.85
2022-07-31T11:26:32.910Z,3.17
2022-07-31T11:31:42.481Z,3.35
2022-07-31T11:36:49.271Z,3.50
2022-07-31T11:41:54.493Z,2.85
2022-07-31T11:46:56.680Z,3.08
2022-07-31T11:52:04.089Z,3.05
2022-07-31T11:57:07.217Z,3.85
2022-07-31T12:02:11.589Z,3.22
2022-07-31T12:07:14.290Z,3.35
2022-07-31T12:12:19.267Z,2.72
2022-07-31T12:17:22.680Z,2.78
2022-07-31T12:22:25.655Z,2.47
2022-07-31T12:27:28.268Z,2.58
2022-07-31T12:32:30.343Z,2.60
2022-07-31T12:37:43.963Z,2.92
2022-07-31T12:42:46.454Z,2.45
2022-07-31T12:47:53.937Z,2.30
2022-07-31T12:53:00.851Z,2.40
2022-07-31T12:58:03.207Z,2.58
2022-07-31T13:03:05.883Z,2.00
2022-07-31T13:08:09.020Z,2.20
2022-07-31T13:13:11.170Z,2.20
2022-07-31T13:18:13.452Z,2.80
2022-07-31T13:23:15.348Z,5.05
2022-07-31T13:28:17.628Z,2.30
2022-07-31T13:33:19.722Z,3.13
2022-07-31T13:38:21.920Z,2.13
2022-07-31T13:43:24.057Z,4.53
2022-07-31T13:48:26.333Z,2.55
2022-07-31T13:53:28.333Z,2.10
2022-07-31T13:58:30.228Z,2.85
2022-07-31T14:03:32.351Z,2.22
2022-07-31T14:08:49.651Z,1.88
2022-07-31T14:13:53.178Z,1.40
2022-07-31T14:18:55.415Z,1.90
2022-07-31T14:23:57.589Z,3.30
2022-07-31T14:29:01.384Z,6.22
2022-07-31T14:34:05.215Z,2.08
2022-07-31T14:39:07.605Z,5.18
2022-07-31T14:44:09.784Z,2.47
2022-07-31T14:49:12.950Z,1.65
2022-07-31T14:54:15.093Z,4.28
2022-07-31T14:59:17.141Z,2.35
2022-07-31T15:04:19.172Z,1.77
2022-07-31T15:09:23.213Z,1.10
2022-07-31T15:14:25.132Z,1.00
2022-07-31T15:19:26.978Z,2.22
2022-07-31T15:24:30.066Z,2.20
2022-07-31T15:30:04.709Z,1.45
2022-07-31T15:34:54.984Z,1.30
2022-07-31T15:40:02.347Z,1.52
2022-07-31T15:45:09.845Z,1.25
2022-07-31T15:50:14.576Z,0.85
2022-07-31T15:55:17.612Z,1.33
2022-07-31T16:00:19.544Z,1.23
2022-07-31T16:05:36.648Z,1.00
2022-07-31T16:10:39.296Z,1.50
2022-07-31T16:15:41.674Z,1.20
2022-07-31T16:20:43.695Z,1.20
2022-07-31T16:25:45.881Z,1.10
2022-07-31T16:30:47.849Z,1.23
2022-07-31T16:35:49.849Z,1.13
2022-07-31T16:40:53.550Z,1.80
2022-07-31T16:45:56.273Z,1.30
2022-07-31T16:50:59.214Z,1.55
2022-07-31T16:56:02.004Z,1.27
2022-07-31T17:01:53.159Z,1.00
2022-07-31T17:06:36.057Z,1.45
2022-07-31T17:11:40.376Z,1.30
2022-07-31T17:16:47.040Z,1.90
2022-07-31T17:21:52.648Z,1.02
2022-07-31T17:26:55.370Z,1.60
2022-07-31T17:31:57.706Z,0.82
2022-07-31T17:36:59.637Z,1.27
2022-07-31T17:42:02.722Z,0.90
2022-07-31T17:47:06.123Z,1.17
2022-07-31T17:52:08.424Z,1.33
2022-07-31T17:57:10.528Z,1.15
2022-07-31T18:02:13.058Z,1.30
2022-07-31T18:07:18.134Z,0.70
2022-07-31T18:12:19.981Z,1.23
2022-07-31T18:17:22.451Z,0.88
2022-07-31T18:22:24.327Z,1.08
2022-07-31T18:27:26.433Z,1.10
2022-07-31T18:32:31.810Z,1.10
2022-07-31T18:37:34.055Z,1.10
2022-07-31T18:42:36.135Z,1.13
2022-07-31T18:47:38.430Z,1.23
2022-07-31T18:52:40.383Z,1.48
2022-07-31T18:57:42.469Z,1.20
2022-07-31T19:02:44.495Z,1.25
2022-07-31T19:07:46.488Z,1.40
2022-07-31T19:12:51.045Z,1.15
2022-07-31T19:17:58.351Z,0.93
2022-07-31T19:23:04.273Z,1.27
2022-07-31T19:28:07.056Z,1.35
2022-07-31T19:33:14.063Z,1.23
2022-07-31T19:38:21.606Z,1.10
2022-07-31T19:43:23.975Z,1.10
2022-07-31T19:48:25.948Z,1.45
2022-07-31T19:53:27.900Z,1.60
2022-07-31T19:58:29.725Z,1.50
2022-07-31T20:03:31.963Z,1.10
2022-07-31T20:08:34.239Z,1.60
2022-07-31T20:13:38.700Z,1.65
2022-07-31T20:18:40.755Z,2.00
2022-07-31T20:23:42.881Z,1.75
2022-07-31T20:28:44.816Z,1.70
2022-07-31T20:33:57.094Z,1.33
2022-07-31T20:38:59.920Z,1.90
2022-07-31T20:44:01.832Z,1.48
2022-07-31T20:49:04.064Z,1.75
2022-07-31T20:54:05.952Z,1.88
2022-07-31T20:59:07.774Z,2.10
2022-07-31T21:04:10.011Z,1.92
2022-07-31T21:09:11.829Z,1.70
2022-07-31T21:14:13.655Z,1.70
2022-07-31T21:19:15.496Z,1.70
2022-07-31T21:24:17.810Z,1.75
2022-07-31T21:29:19.938Z,1.70
2022-07-31T21:34:21.919Z,1.75
2022-07-31T21:39:25.883Z,1.95
2022-07-31T21:44:27.882Z,1.80
2022-07-31T21:49:34.731Z,1.80
2022-07-31T21:54:36.628Z,1.67
2022-07-31T21:59:38.439Z,1.77
2022-07-31T22:05:00.219Z,1.77
2022-07-31T22:10:03.444Z,1.98
2022-07-31T22:15:07.256Z,2.17
2022-07-31T22:20:10.104Z,2.08
2022-07-31T22:25:13.332Z,1.90
2022-07-31T22:30:15.736Z,2.10
2022-07-31T22:35:17.875Z,1.75
2022-07-31T22:40:21.921Z,2.00
2022-07-31T22:45:23.924Z,2.00
2022-07-31T22:50:26.044Z,2.10
2022-07-31T22:55:27.917Z,2.13
2022-07-31T23:00:29.762Z,2.00
2022-07-31T23:06:03.049Z,2.10
2022-07-31T23:10:53.545Z,2.10
2022-07-31T23:15:55.343Z,1.95
2022-07-31T23:20:57.164Z,1.95
2022-07-31T23:25:58.982Z,2.20
2022-07-31T23:31:00.804Z,2.25
2022-07-31T23:36:02.648Z,1.80
2022-07-31T23:41:04.636Z,2.15
2022-07-31T23:46:06.764Z,1.83
2022-07-31T23:51:08.558Z,2.15
2022-07-31T23:56:14.334Z,2.40
